Miguel Oliver — ECLX — position and weather

sailwx.info

Track history (hours):
 
Tides and Currents Weather Stations Pressure Air Temp Water Temp Dewpoint Dewpoint Depression Visibility Wind Speed Wind Dir Waves Ship Positions

Oceanographic research ship Miguel Oliver (Spain)

Ship's website: http://www.mapa.es/es/pesca/pags/miguel_web/index.htm

Last reported at 2014-Oct-22 18:09 UTC. Time now 2014-Oct-24 07:57 UTC.
Position N 43°41' W 005°51'.

Length 70 m; draft 6.1 m.

Type: Other ship. MMSI: 225322000.

Date/timePositionNaut miles runAvg speedWind from/ knotsBaromVisibWave heightAir tempDewpointWater temp
2014-Oct-22 18:09N 43°41' W 005°51'712.2
2014-Oct-22 17:32N 43°41' W 005°41'1212.0
2014-Oct-22 16:33N 43°39' W 005°25'1211.8
2014-Oct-22 15:32N 43°38' W 005°08'138 2.9
2014-Oct-20 16:33N 43°20' W 002°00'1 1.2
2014-Oct-20 15:33N 43°21' W 002°01'9 4.0
2014-Oct-20 13:18N 43°26' W 002°12'2 2.4
2014-Oct-20 12:17N 43°25' W 002°15'3 3.8
2014-Oct-20 11:33N 43°22' W 002°14'3 2.2
2014-Oct-20 10:25N 43°23' W 002°17'4 5.0
2014-Oct-20 09:33N 43°27' W 002°18'3 2.5
2014-Oct-20 08:33N 43°27' W 002°21'5 4.5
2014-Oct-20 07:33N 43°24' W 002°18'6 0.7
2014-Oct-19 23:20N 43°19' W 002°13'0 0.4
2014-Oct-19 22:33N 43°19' W 002°14'1 0.7
2014-Oct-19 21:33N 43°19' W 002°15'0 0.0
2014-Oct-19 18:28N 43°19' W 002°15'1 0.8
2014-Oct-19 17:32N 43°20' W 002°14'7 7.4
2014-Oct-19 16:33N 43°27' W 002°14'6 5.7
2014-Oct-19 15:33N 43°33' W 002°15'3 2.6
2014-Oct-19 14:28N 43°33' W 002°11'23 2.7
2014-Oct-19 06:10N 43°32' W 002°42'5 0.5
2014-Oct-18 19:29N 43°27' W 002°41'37 1.3
2014-Oct-17 15:29N 43°55' W 002°08'10 7.9
2014-Oct-17 14:12N 44°05' W 002°05'3 3.4
2014-Oct-17 13:29N 44°03' W 002°06'  
Track history (hours):
 
Tides and Currents Weather Stations Pressure Air Temp Water Temp Dewpoint Dewpoint Depression Visibility Wind Speed Wind Dir Waves Ship Positions

Oceanographic research ship Miguel Oliver (Spain)

Ship's website: http://www.mapa.es/es/pesca/pags/miguel_web/index.htm

Last reported at 2014-Oct-22 18:09 UTC. Time now 2014-Oct-24 07:57 UTC.
Position N 43°41' W 005°51'.

Length 70 m; draft 6.1 m.

Type: Other ship. MMSI: 225322000.

Date/timePositionNaut miles runAvg speedWind from/ knotsBaromVisibWave heightAir tempDewpointWater temp
2014-Oct-22 18:09N 43°41' W 005°51'712.2
2014-Oct-22 17:32N 43°41' W 005°41'1212.0
2014-Oct-22 16:33N 43°39' W 005°25'1211.8
2014-Oct-22 15:32N 43°38' W 005°08'138 2.9
2014-Oct-20 16:33N 43°20' W 002°00'1 1.2
2014-Oct-20 15:33N 43°21' W 002°01'9 4.0
2014-Oct-20 13:18N 43°26' W 002°12'2 2.4
2014-Oct-20 12:17N 43°25' W 002°15'3 3.8
2014-Oct-20 11:33N 43°22' W 002°14'3 2.2
2014-Oct-20 10:25N 43°23' W 002°17'4 5.0
2014-Oct-20 09:33N 43°27' W 002°18'3 2.5
2014-Oct-20 08:33N 43°27' W 002°21'5 4.5
2014-Oct-20 07:33N 43°24' W 002°18'6 0.7
2014-Oct-19 23:20N 43°19' W 002°13'0 0.4
2014-Oct-19 22:33N 43°19' W 002°14'1 0.7
2014-Oct-19 21:33N 43°19' W 002°15'0 0.0
2014-Oct-19 18:28N 43°19' W 002°15'1 0.8
2014-Oct-19 17:32N 43°20' W 002°14'7 7.4
2014-Oct-19 16:33N 43°27' W 002°14'6 5.7
2014-Oct-19 15:33N 43°33' W 002°15'3 2.6
2014-Oct-19 14:28N 43°33' W 002°11'23 2.7
2014-Oct-19 06:10N 43°32' W 002°42'5 0.5
2014-Oct-18 19:29N 43°27' W 002°41'37 1.3
2014-Oct-17 15:29N 43°55' W 002°08'10 7.9
2014-Oct-17 14:12N 44°05' W 002°05'3 3.4
2014-Oct-17 13:29N 44°03' W 002°06'  

Dump ship's entire track history